Time;durP1;ratioP1;P1;durP2;ratioP2;P2;SDS_P1;SDS_P2;PMS_P1;PMS_P2;Temp;Humidity;BMP_temperature;BMP_pressure;BME280_temperature;BME280_humidity;BME280_pressure;Samples;Min_cycle;Max_cycle;Signal;HPM_P1;HPM_P2
2022/07/30 00:01:03;;;;;;;13.30;10.20;;;;;;;21.39;nan;100172.44;5010353;28;20041;-71
2022/07/30 00:03:28;;;;;;;14.85;10.45;;;;;;;;;;5012474;28;20105;-72
2022/07/30 00:05:54;;;;;;;17.48;10.13;;;;;;;21.36;nan;100202.50;5010093;28;20488;-72
2022/07/30 00:08:21;;;;;;;14.18;9.95;;;;;;;21.32;nan;100185.44;5007602;28;20022;-71
2022/07/30 00:10:47;;;;;;;11.10;9.82;;;;;;;21.30;nan;100182.25;5009251;28;20096;-71
2022/07/30 00:13:12;;;;;;;12.95;9.98;;;;;;;21.30;nan;100195.66;5008735;28;20038;-68
2022/07/30 00:15:38;;;;;;;14.48;10.07;;;;;;;21.26;nan;100200.00;5007380;28;20120;-69
2022/07/30 00:18:03;;;;;;;14.52;10.38;;;;;;;21.24;nan;100181.59;5014274;28;20040;-68
2022/07/30 00:20:29;;;;;;;13.52;9.95;;;;;;;21.21;nan;100256.38;5010710;28;20472;-70
2022/07/30 00:22:54;;;;;;;11.38;9.88;;;;;;;;;;5010439;28;20038;-67
2022/07/30 00:25:20;;;;;;;12.63;10.38;;;;;;;21.17;nan;100175.84;5011021;28;20041;-68
2022/07/30 00:27:45;;;;;;;13.52;10.77;;;;;;;21.19;nan;100175.53;5009468;28;20042;-68
2022/07/30 00:30:12;;;;;;;16.63;10.43;;;;;;;21.16;nan;100163.53;5008228;28;20053;-68
2022/07/30 00:32:37;;;;;;;14.02;10.60;;;;;;;21.16;nan;100178.81;5011011;28;20038;-68
2022/07/30 00:35:03;;;;;;;14.13;10.23;;;;;;;21.13;nan;100187.47;5008612;28;20435;-68
2022/07/30 00:37:28;;;;;;;13.05;10.02;;;;;;;21.08;nan;100220.50;5009143;28;20109;-68
2022/07/30 00:39:54;;;;;;;14.77;10.50;;;;;;;21.08;nan;100163.47;5007137;28;20029;-68
2022/07/30 00:42:24;;;;;;;15.98;10.73;;;;;;;21.08;nan;100126.78;5009505;28;20037;-68
2022/07/30 00:44:52;;;;;;;14.68;10.57;;;;;;;21.04;nan;100209.56;5007014;28;20033;-67
2022/07/30 00:47:18;;;;;;;12.45;10.75;;;;;;;21.00;nan;100147.03;5008915;28;20030;-68
2022/07/30 00:49:44;;;;;;;14.70;11.18;;;;;;;21.02;nan;100144.03;5010296;28;20057;-67
2022/07/30 00:52:10;;;;;;;16.23;11.05;;;;;;;21.00;nan;100146.25;5010787;28;20030;-68
2022/07/30 00:54:35;;;;;;;13.15;9.88;;;;;;;20.98;nan;100108.28;5011911;28;20038;-67
2022/07/30 00:57:01;;;;;;;12.15;10.02;;;;;;;;;;5000656;28;20121;-68
2022/07/30 00:59:27;;;;;;;15.60;10.82;;;;;;;20.89;nan;100061.91;5011243;28;20041;-68
2022/07/30 01:01:53;;;;;;;14.73;10.07;;;;;;;21.00;nan;100146.25;5008219;28;20042;-67
2022/07/30 01:04:19;;;;;;;15.82;10.70;;;;;;;;;;5003472;28;20030;-67
2022/07/30 01:06:44;;;;;;;15.52;10.82;;;;;;;20.95;nan;100117.69;5007895;28;20517;-68
2022/07/30 01:09:10;;;;;;;14.65;10.85;;;;;;;20.91;nan;100103.31;5006345;28;20430;-68
2022/07/30 01:11:37;;;;;;;13.35;10.35;;;;;;;20.92;nan;100122.84;5011984;28;20041;-69
2022/07/30 01:14:05;;;;;;;17.63;11.10;;;;;;;20.90;nan;100103.63;5007899;28;20064;-69
2022/07/30 01:16:31;;;;;;;14.65;10.90;;;;;;;20.94;nan;100126.03;5012875;28;20042;-68
2022/07/30 01:22:02;;;;;;;12.45;10.32;;;;;;;20.92;nan;100091.50;5011256;28;20403;-69
2022/07/30 01:24:34;;;;;;;14.48;10.85;;;;;;;20.97;nan;100123.56;5011909;28;20453;-70
2022/07/30 01:27:01;;;;;;;17.23;11.18;;;;;;;20.91;nan;100092.63;5006767;28;20033;-69
2022/07/30 01:29:27;;;;;;;14.73;10.43;;;;;;;;;;5008532;28;20042;-69
2022/07/30 01:31:58;;;;;;;12.80;10.27;;;;;;;20.93;nan;100111.84;5006348;28;20069;-69
2022/07/30 01:34:26;;;;;;;14.60;10.82;;;;;;;20.91;nan;100106.00;5008520;28;20034;-69
2022/07/30 01:36:52;;;;;;;14.73;10.73;;;;;;;20.95;nan;100123.06;5007832;28;20038;-69
2022/07/30 01:39:18;;;;;;;16.00;10.68;;;;;;;20.97;nan;100130.75;5007122;28;20624;-70
2022/07/30 01:41:46;;;;;;;15.02;10.02;;;;;;;20.93;nan;100116.41;5008349;28;20033;-69
2022/07/30 01:44:14;;;;;;;12.18;10.50;;;;;;;20.93;nan;100117.22;5006535;28;20042;-68
2022/07/30 01:46:40;;;;;;;11.80;10.07;;;;;;;20.94;nan;100113.44;5008607;28;20160;-68
2022/07/30 01:49:07;;;;;;;13.70;10.55;;;;;;;20.91;nan;100172.91;5009682;28;20122;-68
2022/07/30 01:51:33;;;;;;;14.15;10.50;;;;;;;;;;5009055;28;20037;-67
2022/07/30 01:54:00;;;;;;;17.00;10.88;;;;;;;20.91;nan;100113.25;5010464;28;20036;-68
2022/07/30 01:56:27;;;;;;;11.30;10.07;;;;;;;20.91;nan;100105.22;5009444;28;20660;-68
2022/07/30 01:58:54;;;;;;;12.77;10.15;;;;;;;20.91;nan;100108.69;5008938;28;20037;-68
2022/07/30 02:01:20;;;;;;;16.55;9.75;;;;;;;20.86;nan;100114.16;5005703;28;20484;-69
2022/07/30 02:03:46;;;;;;;13.88;10.02;;;;;;;20.89;nan;100112.75;5008848;28;20041;-72
2022/07/30 02:06:25;;;;;;;10.95;9.77;;;;;;;20.88;nan;100117.31;5024565;28;20038;-72
2022/07/30 02:08:55;;;;;;;12.13;9.18;;;;;;;20.86;nan;100106.13;5005602;28;20125;-72
2022/07/30 02:14:10;;;;;;;13.63;10.18;;;;;;;20.76;nan;100149.94;5009073;28;20043;-72
2022/07/30 02:16:39;;;;;;;12.85;9.80;;;;;;;20.77;nan;100097.22;5005666;28;20038;-72
2022/07/30 02:19:10;;;;;;;11.88;9.65;;;;;;;20.80;nan;100093.94;5005493;28;20030;-71
2022/07/30 02:21:40;;;;;;;10.43;9.38;;;;;;;20.82;nan;100105.13;5021198;28;20478;-72
2022/07/30 02:24:12;;;;;;;12.95;8.77;;;;;;;20.81;nan;100108.91;5007692;28;20048;-72
2022/07/30 02:26:39;;;;;;;11.60;9.13;;;;;;;20.80;nan;100108.09;5007023;28;20145;-72
2022/07/30 02:29:07;;;;;;;11.75;9.05;;;;;;;20.80;nan;100105.41;5004979;28;20107;-72
2022/07/30 02:31:34;;;;;;;10.98;8.65;;;;;;;20.80;nan;100104.63;5005116;28;20025;-71
2022/07/30 02:34:03;;;;;;;13.75;9.85;;;;;;;20.73;nan;100105.03;5008765;28;20484;-71
2022/07/30 02:36:31;;;;;;;16.03;9.50;;;;;;;20.73;nan;100097.00;5005666;28;20388;-71
2022/07/30 02:38:58;;;;;;;15.03;9.93;;;;;;;20.73;nan;100101.56;5000764;28;20045;-72
2022/07/30 02:41:27;;;;;;;14.27;9.48;;;;;;;20.72;nan;100100.00;5005741;28;20315;-71
2022/07/30 02:43:54;;;;;;;14.60;9.73;;;;;;;20.73;nan;100102.34;5003598;28;20036;-71
2022/07/30 02:46:22;;;;;;;13.63;9.63;;;;;;;20.70;nan;100054.03;5005295;28;20045;-71
2022/07/30 02:48:50;;;;;;;16.30;9.90;;;;;;;20.71;nan;100087.69;5004950;28;20037;-70
2022/07/30 02:51:18;;;;;;;13.15;9.30;;;;;;;20.71;nan;100098.41;5007139;28;20124;-72
2022/07/30 02:53:48;;;;;;;14.13;10.02;;;;;;;;;;5004293;28;20033;-68
2022/07/30 02:56:16;;;;;;;15.32;9.70;;;;;;;;;;5009358;28;20103;-68
2022/07/30 02:58:44;;;;;;;12.93;8.77;;;;;;;20.68;nan;100101.69;5009469;28;20439;-68
2022/07/30 03:01:14;;;;;;;17.00;10.27;;;;;;;20.69;nan;100090.69;5003009;28;20478;-68
2022/07/30 03:03:43;;;;;;;13.40;9.52;;;;;;;20.65;nan;100088.91;5008209;28;20039;-68
2022/07/30 03:06:08;;;;;;;13.25;9.45;;;;;;;;;;5004138;28;20591;-68
2022/07/30 03:08:35;;;;;;;13.95;9.50;;;;;;;20.70;nan;100088.81;5008959;28;20160;-68
2022/07/30 03:11:02;;;;;;;11.70;9.55;;;;;;;20.68;nan;100101.69;5005883;28;20432;-68
2022/07/30 03:13:27;;;;;;;15.07;9.45;;;;;;;20.68;nan;100131.91;5008536;28;20048;-68
2022/07/30 03:15:57;;;;;;;10.60;9.32;;;;;;;20.66;nan;100099.28;5005765;28;20098;-72
2022/07/30 03:18:23;;;;;;;12.43;9.07;;;;;;;20.68;nan;100099.00;5004420;28;20037;-72
2022/07/30 03:20:53;;;;;;;14.27;9.40;;;;;;;20.69;nan;100104.06;5005243;28;20041;-72
2022/07/30 03:23:19;;;;;;;14.30;10.15;;;;;;;20.65;nan;100070.19;5005762;28;20140;-72
2022/07/30 03:25:55;;;;;;;14.80;10.00;;;;;;;20.68;nan;100094.44;5007518;28;20058;-73
2022/07/30 03:28:22;;;;;;;15.00;10.10;;;;;;;20.67;nan;100110.81;5008201;28;20061;-69
2022/07/30 03:30:48;;;;;;;12.20;9.60;;;;;;;20.66;nan;100103.84;5007006;28;20033;-68
2022/07/30 03:33:15;;;;;;;11.32;9.80;;;;;;;20.62;nan;100058.19;5004492;28;20041;-67
2022/07/30 03:35:41;;;;;;;14.18;9.35;;;;;;;;;;5007217;28;20030;-68
2022/07/30 03:38:09;;;;;;;15.02;9.75;;;;;;;20.65;nan;100095.03;5005331;28;20093;-69
2022/07/30 03:40:34;;;;;;;12.80;9.23;;;;;;;;;;5009642;28;20120;-68
2022/07/30 03:43:00;;;;;;;13.30;9.55;;;;;;;20.62;nan;100084.97;5007437;28;20046;-69
2022/07/30 03:45:26;;;;;;;11.52;9.60;;;;;;;20.62;nan;100095.66;5004683;28;20026;-68
2022/07/30 03:47:52;;;;;;;13.55;10.00;;;;;;;20.57;nan;100101.13;5006662;28;20108;-68
2022/07/30 03:50:18;;;;;;;14.20;9.18;;;;;;;20.63;nan;100101.78;5004677;28;20033;-68
2022/07/30 03:52:44;;;;;;;10.75;9.25;;;;;;;20.49;nan;100080.38;5007110;28;20038;-69
2022/07/30 03:55:11;;;;;;;13.07;9.82;;;;;;;20.58;nan;100068.69;5002017;28;20049;-68
2022/07/30 03:57:37;;;;;;;14.10;9.77;;;;;;;20.62;nan;100095.66;5001558;28;20042;-71
2022/07/30 04:00:12;;;;;;;16.08;11.90;;;;;;;20.58;nan;100078.59;5011937;28;20034;-72
2022/07/30 04:02:42;;;;;;;18.25;13.10;;;;;;;20.61;nan;100102.09;5003856;28;20069;-72
2022/07/30 04:05:08;;;;;;;17.23;11.10;;;;;;;20.60;nan;100079.09;5005530;28;20042;-72
2022/07/30 04:07:34;;;;;;;13.65;10.13;;;;;;;20.63;nan;100096.44;5006705;28;20038;-72
2022/07/30 04:09:59;;;;;;;15.13;11.57;;;;;;;20.64;nan;100101.50;5000673;28;20407;-72
2022/07/30 04:12:25;;;;;;;14.27;9.95;;;;;;;20.62;nan;100109.03;5007455;28;20038;-71
2022/07/30 04:14:52;;;;;;;14.57;10.57;;;;;;;20.63;nan;100083.84;5006132;28;20164;-68
2022/07/30 04:17:23;;;;;;;12.88;10.02;;;;;;;20.68;nan;100090.97;5004444;28;20449;-66
2022/07/30 04:19:52;;;;;;;15.70;10.23;;;;;;;20.71;nan;100088.50;5010188;28;20104;-71
2022/07/30 04:22:23;;;;;;;13.63;9.90;;;;;;;20.77;nan;100079.28;5008410;28;20060;-71
2022/07/30 04:24:50;;;;;;;12.15;10.00;;;;;;;20.80;nan;100093.94;5009465;28;20101;-72
2022/07/30 04:27:16;;;;;;;12.25;9.75;;;;;;;20.90;nan;100099.09;5010455;28;20357;-72
2022/07/30 04:29:42;;;;;;;13.00;10.27;;;;;;;20.96;nan;100076.44;5008987;28;20041;-72
2022/07/30 04:32:08;;;;;;;15.00;10.27;;;;;;;;;;5008122;28;20565;-71
2022/07/30 04:34:34;;;;;;;11.75;9.63;;;;;;;21.11;nan;100086.00;5007736;28;20048;-69
2022/07/30 04:36:59;;;;;;;13.80;9.82;;;;;;;21.19;nan;100084.50;5003992;28;20485;-67
2022/07/30 04:39:25;;;;;;;12.00;10.18;;;;;;;21.27;nan;100096.38;5010925;28;20038;-71
2022/07/30 04:41:51;;;;;;;13.68;9.77;;;;;;;21.33;nan;100114.69;5008728;28;20441;-72
2022/07/30 04:44:18;;;;;;;13.95;9.73;;;;;;;21.48;nan;100102.06;5011888;28;20412;-72
2022/07/30 04:46:44;;;;;;;16.00;8.88;;;;;;;21.54;nan;100092.81;5002617;28;20052;-71
2022/07/30 04:49:11;;;;;;;12.52;9.27;;;;;;;21.66;nan;100099.19;5010863;28;20403;-72
2022/07/30 04:51:38;;;;;;;12.90;8.98;;;;;;;21.73;nan;100080.00;5007345;28;20037;-68
2022/07/30 04:54:07;;;;;;;12.13;9.23;;;;;;;21.78;nan;100055.75;5009054;28;20051;-68
2022/07/30 04:56:34;;;;;;;13.27;9.38;;;;;;;21.89;nan;100147.41;5010621;28;20092;-68
2022/07/30 04:59:01;;;;;;;13.70;8.80;;;;;;;21.94;nan;100064.19;5010643;28;20034;-69
2022/07/30 05:01:32;;;;;;;14.07;9.30;;;;;;;22.03;nan;100073.06;5009090;28;20038;-68
2022/07/30 05:04:00;;;;;;;16.27;9.57;;;;;;;22.10;nan;100091.38;4999297;28;20120;-69
2022/07/30 05:06:27;;;;;;;11.25;8.95;;;;;;;22.18;nan;100039.66;5002763;28;20492;-69
2022/07/30 05:08:54;;;;;;;15.27;9.93;;;;;;;22.25;nan;100050.75;5007709;28;20057;-68
2022/07/30 05:11:19;;;;;;;13.13;8.55;;;;;;;22.32;nan;100036.88;5008449;28;20172;-68
2022/07/30 05:13:47;;;;;;;11.65;8.93;;;;;;;22.41;nan;100077.13;5010734;28;20563;-68
2022/07/30 05:16:13;;;;;;;9.25;8.02;;;;;;;22.49;nan;100068.34;5005753;28;20117;-71
2022/07/30 05:18:39;;;;;;;12.30;8.60;;;;;;;22.59;nan;100073.38;5007104;28;20030;-69
2022/07/30 05:21:05;;;;;;;13.48;9.00;;;;;;;22.69;nan;100070.41;5009074;28;20076;-68
2022/07/30 05:23:31;;;;;;;9.52;8.48;;;;;;;22.75;nan;100075.59;5009188;28;20027;-73
2022/07/30 05:25:57;;;;;;;12.13;8.77;;;;;;;22.80;nan;100075.47;5007017;28;20493;-73
2022/07/30 05:28:25;;;;;;;15.65;8.40;;;;;;;;;;5005988;28;20026;-72
2022/07/30 05:30:51;;;;;;;12.00;8.77;;;;;;;22.82;nan;100068.69;5005710;28;20042;-72
2022/07/30 05:33:17;;;;;;;12.23;8.77;;;;;;;22.89;nan;100090.50;5022947;28;20051;-72
2022/07/30 05:35:42;;;;;;;11.20;8.68;;;;;;;22.89;nan;100006.44;5008445;28;20825;-72
2022/07/30 05:38:08;;;;;;;10.52;8.50;;;;;;;22.99;nan;100088.63;5005581;28;20033;-70
2022/07/30 05:40:33;;;;;;;11.18;8.18;;;;;;;23.03;nan;100071.56;5009584;28;20038;-68
2022/07/30 05:42:59;;;;;;;11.07;8.40;;;;;;;23.19;nan;100066.50;5005271;28;20474;-68
2022/07/30 05:45:24;;;;;;;12.50;8.90;;;;;;;23.27;nan;100032.66;5008403;28;20045;-69
2022/07/30 05:47:49;;;;;;;14.00;9.27;;;;;;;23.35;nan;100018.44;5026676;28;20084;-66
2022/07/30 05:50:15;;;;;;;12.35;8.50;;;;;;;23.50;nan;100100.44;5008852;28;20040;-66
2022/07/30 05:52:40;;;;;;;12.07;8.32;;;;;;;23.67;nan;100094.25;5011161;28;20121;-69
2022/07/30 05:55:06;;;;;;;16.52;9.35;;;;;;;23.75;nan;100096.13;5009689;28;20030;-67
2022/07/30 05:57:35;;;;;;;12.82;9.50;;;;;;;23.82;nan;100099.13;5009355;28;20594;-68
2022/07/30 06:00:02;;;;;;;13.57;8.68;;;;;;;23.96;nan;100053.19;5004561;28;20038;-68
2022/07/30 06:02:28;;;;;;;9.52;8.52;;;;;;;24.05;nan;100168.84;5007410;28;20041;-67
2022/07/30 06:04:53;;;;;;;15.35;8.98;;;;;;;24.09;nan;100105.22;5007372;28;20041;-67
2022/07/30 06:07:19;;;;;;;14.18;8.82;;;;;;;24.21;nan;100113.41;5006416;28;20041;-67
2022/07/30 06:09:44;;;;;;;12.18;8.18;;;;;;;24.33;nan;100120.78;5009946;28;20128;-68
2022/07/30 06:12:10;;;;;;;11.05;8.10;;;;;;;24.38;nan;100099.06;5005180;28;20037;-68
2022/07/30 06:14:35;;;;;;;11.95;8.25;;;;;;;24.30;nan;100114.16;5006503;28;20043;-69
2022/07/30 06:17:00;;;;;;;10.30;8.15;;;;;;;24.48;nan;100128.31;5006415;28;20088;-69
2022/07/30 06:19:26;;;;;;;11.32;8.25;;;;;;;24.47;nan;100142.91;5008011;28;20061;-66
2022/07/30 06:21:51;;;;;;;13.60;8.10;;;;;;;24.60;nan;100125.72;5008155;28;20507;-68
2022/07/30 06:24:17;;;;;;;10.88;8.05;;;;;;;24.64;nan;100139.34;5006457;28;20117;-68
2022/07/30 06:26:42;;;;;;;13.45;7.75;;;;;;;24.67;nan;100162.13;5004996;28;20484;-69
2022/07/30 06:29:07;;;;;;;11.15;7.93;;;;;;;24.59;nan;100117.97;5006801;28;20030;-68
2022/07/30 06:31:33;;;;;;;13.00;8.38;;;;;;;24.79;nan;100136.06;5005989;28;20074;-69
2022/07/30 06:33:58;;;;;;;12.88;8.80;;;;;;;24.87;nan;100142.50;5023980;28;20067;-69
2022/07/30 06:36:24;;;;;;;12.52;8.10;;;;;;;24.93;nan;100138.50;5005385;28;20033;-69
2022/07/30 06:38:49;;;;;;;13.40;8.23;;;;;;;25.01;nan;100124.19;5009135;28;20442;-68
2022/07/30 06:41:15;;;;;;;15.52;8.75;;;;;;;25.00;nan;100103.75;5008085;28;20124;-68
2022/07/30 06:43:40;;;;;;;11.25;8.25;;;;;;;25.06;nan;100133.97;5006834;28;20124;-70
2022/07/30 06:46:06;;;;;;;10.85;8.02;;;;;;;25.07;nan;100132.88;5007238;28;20049;-69
2022/07/30 06:48:31;;;;;;;9.85;8.25;;;;;;;25.13;nan;100101.91;5006088;28;20030;-72
2022/07/30 06:50:57;;;;;;;10.90;9.10;;;;;;;25.12;nan;100091.47;5005431;28;20034;-72
2022/07/30 06:53:22;;;;;;;11.73;8.73;;;;;;;25.17;nan;100100.16;5004825;28;20057;-73
2022/07/30 06:55:49;;;;;;;9.68;8.50;;;;;;;25.20;nan;100114.88;5005011;28;20429;-72
2022/07/30 06:58:15;;;;;;;12.43;8.50;;;;;;;25.22;nan;100101.88;5003994;28;20184;-72
2022/07/30 07:00:43;;;;;;;12.23;8.27;;;;;;;25.30;nan;100114.47;5008421;28;20113;-71
2022/07/30 07:03:09;;;;;;;10.20;9.10;;;;;;;25.35;nan;100114.25;5005922;28;20044;-72
2022/07/30 07:05:34;;;;;;;9.57;8.57;;;;;;;25.21;nan;100087.59;5006439;28;20042;-72
2022/07/30 07:08:00;;;;;;;10.73;8.75;;;;;;;25.46;nan;100128.91;5008490;28;20045;-73
2022/07/30 07:10:26;;;;;;;17.88;9.05;;;;;;;25.52;nan;100123.31;5006717;28;20060;-72
2022/07/30 07:12:51;;;;;;;9.48;8.10;;;;;;;25.59;nan;100123.56;5006479;28;20496;-73
2022/07/30 07:15:17;;;;;;;11.32;8.40;;;;;;;25.64;nan;100134.13;5010408;28;20045;-69
2022/07/30 07:17:42;;;;;;;11.35;8.00;;;;;;;25.79;nan;100151.59;5008330;28;20112;-68
2022/07/30 07:20:09;;;;;;;10.65;8.75;;;;;;;25.83;nan;100085.84;5004247;28;20124;-68
2022/07/30 07:22:34;;;;;;;9.40;8.43;;;;;;;25.92;nan;100075.00;5006048;28;20710;-72
2022/07/30 07:24:59;;;;;;;8.65;7.68;;;;;;;26.07;nan;100097.81;5024584;28;20088;-71
2022/07/30 07:27:25;;;;;;;10.02;8.25;;;;;;;26.14;nan;100086.47;5006608;28;20034;-68
2022/07/30 07:29:50;;;;;;;8.93;7.63;;;;;;;26.31;nan;100087.03;5008242;28;20495;-69
2022/07/30 07:32:16;;;;;;;12.50;8.00;;;;;;;26.34;nan;100088.28;5005488;28;20038;-71
2022/07/30 07:34:41;;;;;;;13.77;7.93;;;;;;;26.48;nan;100080.59;5009493;28;20034;-72
2022/07/30 07:37:07;;;;;;;12.02;7.47;;;;;;;26.47;nan;100060.13;5010244;28;20026;-71
2022/07/30 07:39:32;;;;;;;12.43;7.43;;;;;;;26.63;nan;100089.16;5004915;28;20030;-71
2022/07/30 07:41:58;;;;;;;12.07;7.63;;;;;;;26.68;nan;100054.59;5003131;28;20061;-73
2022/07/30 07:44:23;;;;;;;10.07;7.45;;;;;;;26.76;nan;100111.53;5004288;28;20030;-71
2022/07/30 07:46:48;;;;;;;8.57;6.82;;;;;;;26.80;nan;100086.19;5007521;28;20526;-70
2022/07/30 07:49:14;;;;;;;7.80;6.60;;;;;;;27.07;nan;100127.09;5003529;28;20481;-70
2022/07/30 07:51:39;;;;;;;9.60;6.95;;;;;;;27.11;nan;100092.84;5006017;28;20041;-70
2022/07/30 07:54:05;;;;;;;8.50;7.35;;;;;;;27.16;nan;100112.31;5009954;28;20034;-70
2022/07/30 07:56:30;;;;;;;10.88;7.22;;;;;;;27.26;nan;100092.13;5011308;28;20383;-69
2022/07/30 07:58:56;;;;;;;14.50;7.43;;;;;;;27.40;nan;100099.06;5008044;28;20053;-69
2022/07/30 08:01:21;;;;;;;7.75;6.95;;;;;;;27.48;nan;100085.38;5011165;28;20038;-69
2022/07/30 08:03:47;;;;;;;11.73;7.18;;;;;;;27.57;nan;100082.50;5010894;28;20042;-69
2022/07/30 08:06:13;;;;;;;7.28;6.57;;;;;;;27.65;nan;100084.25;5012107;28;20033;-69
2022/07/30 08:08:38;;;;;;;9.43;6.95;;;;;;;27.74;nan;100065.94;5010011;28;20526;-71
2022/07/30 08:11:06;;;;;;;8.80;6.88;;;;;;;27.94;nan;100079.56;5008461;28;20442;-70
2022/07/30 08:13:32;;;;;;;7.50;6.78;;;;;;;28.02;nan;100077.84;5012945;28;20033;-71
2022/07/30 08:15:58;;;;;;;7.20;6.43;;;;;;;28.09;nan;100092.34;5013642;28;20041;-70
2022/07/30 08:18:24;;;;;;;8.35;6.60;;;;;;;28.21;nan;100086.81;5008653;28;20735;-68
2022/07/30 08:20:50;;;;;;;7.97;6.53;;;;;;;28.31;nan;100061.13;5010586;28;20058;-68
2022/07/30 08:23:17;;;;;;;11.13;7.07;;;;;;;28.35;nan;100020.56;5006675;28;20033;-69
2022/07/30 08:25:43;;;;;;;10.82;7.00;;;;;;;28.54;nan;100063.16;5007134;28;20528;-71
2022/07/30 08:28:09;;;;;;;8.80;6.90;;;;;;;28.62;nan;100073.81;5008786;28;20123;-69
2022/07/30 08:30:35;;;;;;;12.32;6.75;;;;;;;28.70;nan;100079.38;5005302;28;22784;-70
2022/07/30 08:33:02;;;;;;;9.68;6.57;;;;;;;28.72;nan;100061.63;5022827;28;20505;-70
2022/07/30 08:35:28;;;;;;;10.07;6.95;;;;;;;28.80;nan;100114.03;5013278;28;20041;-70
2022/07/30 08:37:53;;;;;;;17.67;7.32;;;;;;;28.86;nan;100025.91;5006680;28;20048;-71
2022/07/30 08:40:19;;;;;;;10.85;7.53;;;;;;;28.99;nan;100076.09;5022720;28;20452;-71
2022/07/30 08:42:46;;;;;;;8.57;6.88;;;;;;;29.08;nan;100073.22;5010140;28;20042;-70
2022/07/30 08:45:12;;;;;;;13.30;7.05;;;;;;;29.08;nan;100046.09;5003302;28;20045;-70
2022/07/30 08:47:39;;;;;;;10.70;6.68;;;;;;;29.32;nan;100063.19;5008666;28;20121;-71
2022/07/30 08:50:06;;;;;;;12.85;6.68;;;;;;;29.43;nan;100075.03;5010350;28;20041;-70
2022/07/30 08:52:34;;;;;;;14.85;6.18;;;;;;;29.54;nan;100042.66;5004178;28;20040;-70
2022/07/30 08:55:00;;;;;;;10.63;5.93;;;;;;;29.67;nan;100060.34;5009643;28;20094;-71
2022/07/30 08:57:29;;;;;;;6.47;5.78;;;;;;;29.83;nan;100066.41;5011028;28;20107;-71
2022/07/30 08:59:56;;;;;;;7.25;5.68;;;;;;;29.93;nan;100056.09;5011142;28;20108;-71
2022/07/30 09:02:22;;;;;;;9.23;6.10;;;;;;;30.00;nan;100050.78;5005695;28;20088;-72
2022/07/30 09:04:47;;;;;;;10.02;6.22;;;;;;;30.07;nan;100067.16;5004754;28;20033;-69
2022/07/30 09:07:13;;;;;;;8.75;5.75;;;;;;;30.15;nan;100049.84;5011046;28;20088;-69
2022/07/30 09:09:38;;;;;;;14.48;6.25;;;;;;;30.24;nan;100031.34;5006066;28;20546;-69
2022/07/30 09:12:32;;;;;;;8.30;5.80;;;;;;;30.40;nan;100060.31;5010076;28;20029;-70
2022/07/30 09:15:07;;;;;;;6.13;5.53;;;;;;;30.51;nan;100040.28;5006870;28;20066;-69
2022/07/30 09:17:55;;;;;;;6.80;5.93;;;;;;;30.60;nan;100031.84;5009196;28;20042;-69
2022/07/30 09:20:26;;;;;;;7.25;5.68;;;;;;;30.64;nan;100073.41;5006956;28;20053;-70
2022/07/30 09:22:57;;;;;;;16.35;5.75;;;;;;;30.80;nan;100021.59;5006207;28;20107;-70
2022/07/30 09:25:36;;;;;;;7.28;5.78;;;;;;;30.92;nan;100031.47;5008407;28;20045;-71
2022/07/30 09:28:02;;;;;;;7.32;5.72;;;;;;;31.01;nan;100067.31;5004049;28;20038;-70
2022/07/30 09:30:44;;;;;;;8.25;5.70;;;;;;;31.10;nan;100034.34;5009001;28;20045;-70
2022/07/30 09:33:09;;;;;;;7.85;5.80;;;;;;;31.05;nan;99993.91;5007550;28;20097;-70
2022/07/30 09:35:34;;;;;;;6.38;5.55;;;;;;;31.16;nan;100006.44;5007267;28;20069;-70
2022/07/30 09:38:00;;;;;;;11.25;5.88;;;;;;;31.32;nan;100019.03;5006264;28;20030;-70
2022/07/30 09:40:25;;;;;;;7.75;5.82;;;;;;;31.36;nan;99958.03;5006113;28;20029;-70
2022/07/30 09:43:10;;;;;;;7.32;5.68;;;;;;;31.43;nan;100038.97;5009495;28;20037;-72
2022/07/30 09:45:48;;;;;;;7.30;5.70;;;;;;;31.51;nan;100034.38;5008264;28;20049;-72
2022/07/30 09:48:24;;;;;;;6.73;5.90;;;;;;;31.63;nan;99985.13;5013716;28;20033;-70
2022/07/30 09:50:52;;;;;;;9.55;5.65;;;;;;;31.68;nan;99992.13;5023344;28;20034;-70
2022/07/30 09:53:21;;;;;;;7.22;6.05;;;;;;;31.71;nan;99973.09;5007998;28;20046;-69
2022/07/30 09:55:46;;;;;;;9.70;5.57;;;;;;;31.92;nan;99983.34;5008707;28;20026;-70
2022/07/30 09:58:12;;;;;;;7.88;5.97;;;;;;;31.96;nan;100014.13;5006864;28;20053;-70
2022/07/30 10:00:39;;;;;;;6.68;5.93;;;;;;;32.03;nan;99974.50;5010001;28;20034;-71
2022/07/30 10:03:25;;;;;;;7.10;5.50;;;;;;;32.06;nan;99990.06;5010992;28;20034;-72
2022/07/30 10:05:57;;;;;;;10.43;5.85;;;;;;;31.96;nan;100013.34;5007185;28;20116;-71
2022/07/30 10:08:45;;;;;;;8.73;5.68;;;;;;;32.02;nan;99986.56;5005307;28;20037;-71
2022/07/30 10:11:14;;;;;;;;;;;;;;;32.03;nan;99982.66;5008432;28;20038;-71
2022/07/30 10:13:41;;;;;;;7.93;5.60;;;;;;;32.05;nan;99974.91;5007578;28;19916;-72
2022/07/30 10:16:08;;;;;;;8.63;5.78;;;;;;;32.04;nan;99970.59;5007420;28;20100;-75
2022/07/30 10:18:34;;;;;;;8.65;5.45;;;;;;;32.07;nan;99937.16;5003039;28;20041;-72
2022/07/30 10:21:00;;;;;;;11.30;5.78;;;;;;;32.07;nan;99951.56;5004003;28;20069;-71
2022/07/30 10:23:29;;;;;;;8.70;5.40;;;;;;;32.17;nan;99937.19;5002392;28;20048;-71
2022/07/30 10:25:56;;;;;;;8.90;5.22;;;;;;;32.16;nan;100006.47;5005549;28;20143;-70
2022/07/30 10:28:26;;;;;;;9.40;5.88;;;;;;;32.19;nan;99953.16;5016873;28;20112;-71
2022/07/30 10:30:52;;;;;;;9.68;5.30;;;;;;;32.04;nan;100006.00;5007649;28;20030;-71
2022/07/30 10:33:21;;;;;;;7.93;5.65;;;;;;;31.96;nan;99961.59;5009261;28;20392;-73
2022/07/30 10:35:46;;;;;;;22.58;5.45;;;;;;;31.78;nan;99977.81;5008094;28;20492;-72
2022/07/30 10:38:15;;;;;;;53.67;7.00;;;;;;;31.03;nan;100001.66;5006745;28;20135;-72
2022/07/30 10:40:52;;;;;;;39.50;6.80;;;;;;;30.06;nan;100016.72;5010434;28;20038;-72
2022/07/30 10:44:09;;;;;;;27.73;6.65;;;;;;;29.03;nan;100006.47;5012184;28;20101;-73
2022/07/30 10:47:05;;;;;;;46.03;7.68;;;;;;;28.33;nan;99991.16;4984167;28;20100;-73
2022/07/30 10:49:31;;;;;;;30.48;5.72;;;;;;;27.85;nan;99982.38;4979169;28;20126;-73
2022/07/30 10:51:57;;;;;;;36.10;5.78;;;;;;;27.47;nan;100010.00;4987525;28;20041;-73
2022/07/30 10:54:36;;;;;;;31.67;6.90;;;;;;;27.16;nan;100033.13;4985103;28;20076;-72
2022/07/30 10:57:10;;;;;;;15.00;6.50;;;;;;;26.95;nan;99971.97;4986112;28;20069;-73
2022/07/30 11:00:02;;;;;;;20.98;6.00;;;;;;;26.74;nan;99995.69;4985257;28;20038;-73
2022/07/30 11:02:30;;;;;;;16.75;6.45;;;;;;;26.55;nan;100022.56;4983842;28;20127;-72
2022/07/30 11:05:16;;;;;;;14.73;7.60;;;;;;;26.33;nan;100003.00;4987022;28;20042;-73
2022/07/30 11:07:43;;;;;;;19.85;7.28;;;;;;;26.10;nan;100022.38;4988062;28;20524;-72
2022/07/30 11:10:36;;;;;;;17.23;7.70;;;;;;;25.75;nan;100038.19;4988258;28;20038;-74
2022/07/30 11:13:04;;;;;;;22.88;7.80;;;;;;;25.24;nan;100060.00;4988156;28;20022;-74
2022/07/30 11:15:58;;;;;;;13.30;6.47;;;;;;;24.76;nan;100034.41;4987553;28;20527;-75
2022/07/30 11:18:25;;;;;;;15.60;6.13;;;;;;;24.38;nan;99999.50;4984315;28;20034;-70
2022/07/30 11:21:16;;;;;;;11.80;6.03;;;;;;;23.90;nan;100020.34;4983636;28;20046;-71
2022/07/30 11:23:44;;;;;;;12.48;6.15;;;;;;;23.49;nan;100000.22;5005627;28;20038;-72
2022/07/30 11:26:10;;;;;;;9.27;5.93;;;;;;;23.12;nan;99990.97;5001636;28;20512;-74
2022/07/30 11:28:37;;;;;;;8.85;6.28;;;;;;;22.98;nan;99977.72;5007667;28;20034;-71
2022/07/30 11:31:23;;;;;;;7.60;6.10;;;;;;;22.85;nan;99959.88;5004400;28;20041;-72
2022/07/30 11:33:49;;;;;;;8.07;5.32;;;;;;;22.69;nan;99992.56;5008431;28;20113;-70
2022/07/30 11:36:14;;;;;;;8.13;5.28;;;;;;;22.55;nan;99965.09;5006957;28;20610;-69
2022/07/30 11:38:54;;;;;;;9.50;5.78;;;;;;;22.45;nan;99942.03;5005472;28;20037;-71
2022/07/30 11:41:20;;;;;;;8.25;5.38;;;;;;;22.52;nan;99955.00;5001937;28;20532;-75
2022/07/30 11:43:45;;;;;;;11.40;5.50;;;;;;;22.53;nan;100012.94;5004976;28;20450;-74
2022/07/30 11:46:18;;;;;;;10.93;5.38;;;;;;;22.57;nan;100000.44;5005573;28;20042;-70
2022/07/30 11:49:03;;;;;;;11.95;5.72;;;;;;;22.60;nan;99989.09;5004111;28;20045;-72
2022/07/30 11:51:42;;;;;;;7.95;5.28;;;;;;;22.61;nan;99973.78;5005844;28;20037;-71